Time;durP1;ratioP1;P1;durP2;ratioP2;P2;SDS_P1;SDS_P2;PMS_P1;PMS_P2;Temp;Humidity;BMP_temperature;BMP_pressure;BME280_temperature;BME280_humidity;BME280_pressure;Samples;Min_cycle;Max_cycle;Signal;HPM_P1;HPM_P2
2022/12/30 00:01:31;;;;;;;7.60;2.63;;;8.00;90.20;;;;;;5028314;28;20044;-66
2022/12/30 00:03:56;;;;;;;10.43;3.10;;;8.00;90.20;;;;;;5028973;28;20485;-66
2022/12/30 00:06:23;;;;;;;8.00;2.40;;;8.00;90.30;;;;;;5028399;28;20025;-67
2022/12/30 00:08:57;;;;;;;7.70;2.42;;;8.00;90.30;;;;;;5029074;28;20029;-67
2022/12/30 00:11:28;;;;;;;10.77;2.60;;;8.00;90.30;;;;;;5030769;28;20092;-67
2022/12/30 00:34:29;;;;;;;9.25;2.83;;;7.70;90.50;;;;;;5032707;28;20171;-66
2022/12/30 00:36:55;;;;;;;10.40;2.83;;;7.70;90.50;;;;;;5030537;28;20049;-66
2022/12/30 00:39:22;;;;;;;8.68;2.72;;;7.70;90.60;;;;;;5031533;28;20033;-66
2022/12/30 00:44:31;;;;;;;12.43;2.90;;;7.60;90.60;;;;;;5030945;28;20029;-64
2022/12/30 00:46:58;;;;;;;6.70;2.50;;;7.60;90.60;;;;;;5027820;28;20025;-67
2022/12/30 00:57:37;;;;;;;7.45;2.72;;;7.60;90.70;;;;;;5030548;28;20103;-67
2022/12/30 01:00:06;;;;;;;5.72;2.13;;;7.50;90.70;;;;;;5030335;28;20112;-67
2022/12/30 01:02:31;;;;;;;4.78;1.90;;;7.50;90.70;;;;;;5031089;28;20503;-66
2022/12/30 01:04:57;;;;;;;7.13;2.42;;;7.50;90.70;;;;;;5031063;28;20022;-67
2022/12/30 01:07:23;;;;;;;6.05;2.13;;;7.50;90.80;;;;;;5028106;28;20499;-65
2022/12/30 01:09:48;;;;;;;9.05;2.40;;;7.50;90.80;;;;;;5031206;28;20030;-65
2022/12/30 01:12:14;;;;;;;8.75;2.35;;;7.50;90.80;;;;;;5030013;28;20097;-65
2022/12/30 01:14:43;;;;;;;7.65;2.38;;;7.50;90.80;;;;;;5031971;28;20018;-65
2022/12/30 01:17:11;;;;;;;9.13;2.65;;;7.40;90.80;;;;;;5032681;28;20059;-65
2022/12/30 01:19:37;;;;;;;9.73;2.90;;;7.40;90.80;;;;;;5030474;28;20030;-65
2022/12/30 01:22:04;;;;;;;14.52;2.60;;;7.30;90.80;;;;;;5028670;28;20447;-65
2022/12/30 01:24:29;;;;;;;10.73;2.70;;;7.30;90.90;;;;;;5029929;28;20476;-65
2022/12/30 01:26:55;;;;;;;9.50;2.42;;;7.30;91.00;;;;;;5030128;28;20033;-65
2022/12/30 01:29:36;;;;;;;8.40;2.30;;;7.40;91.00;;;;;;5031439;28;20559;-65
2022/12/30 01:32:06;;;;;;;8.40;2.30;;;7.30;91.00;;;;;;5025403;28;20026;-65
2022/12/30 01:34:33;;;;;;;8.02;2.40;;;7.30;91.00;;;;;;5027902;28;20017;-65
2022/12/30 01:36:59;;;;;;;9.57;2.33;;;7.30;91.10;;;;;;5028873;28;20108;-65
2022/12/30 01:39:25;;;;;;;7.13;2.20;;;7.30;91.10;;;;;;5031570;28;20029;-65
2022/12/30 01:41:52;;;;;;;9.68;2.75;;;7.30;91.10;;;;;;5031806;28;20033;-67
2022/12/30 01:44:56;;;;;;;6.78;2.30;;;7.30;91.10;;;;;;5030200;28;20029;-65
2022/12/30 01:47:47;;;;;;;8.68;2.30;;;7.30;91.10;;;;;;5024970;28;20467;-65
2022/12/30 01:50:40;;;;;;;6.13;2.17;;;7.30;91.10;;;;;;5024620;28;20045;-65
2022/12/30 01:53:13;;;;;;;7.57;2.40;;;7.30;91.10;;;;;;5028130;28;20049;-65
2022/12/30 01:55:50;;;;;;;9.15;2.38;;;7.30;91.20;;;;;;5028253;28;20025;-65
2022/12/30 01:58:22;;;;;;;8.18;2.60;;;7.30;91.20;;;;;;5031168;28;20022;-65
2022/12/30 02:00:47;;;;;;;;;;;7.30;91.20;;;;;;5013269;28;20632;-65
2022/12/30 02:03:13;;;;;;;6.88;2.47;;;7.20;91.10;;;;;;5014208;28;19964;-67
2022/12/30 02:05:41;;;;;;;9.18;2.85;;;7.20;91.10;;;;;;5031149;28;20498;-65
2022/12/30 02:08:16;;;;;;;9.07;2.80;;;7.20;91.10;;;;;;5024295;28;20025;-65
2022/12/30 02:10:46;;;;;;;9.98;2.67;;;7.20;91.20;;;;;;5030609;28;20441;-66
2022/12/30 02:13:17;;;;;;;9.57;2.88;;;7.20;91.20;;;;;;5021489;28;20037;-65
2022/12/30 02:15:56;;;;;;;9.02;2.53;;;7.10;91.20;;;;;;5030467;28;20056;-65
2022/12/30 02:18:40;;;;;;;9.70;2.80;;;7.10;91.30;;;;;;5030726;28;20025;-66
2022/12/30 02:21:21;;;;;;;10.18;2.70;;;7.10;91.60;;;;;;5015436;28;20029;-65
2022/12/30 02:24:03;;;;;;;7.22;2.55;;;7.10;91.30;;;;;;5027308;28;20479;-65
2022/12/30 02:26:40;;;;;;;11.13;3.40;;;7.10;91.40;;;;;;5031167;28;20031;-66
2022/12/30 02:29:37;;;;;;;8.98;2.83;;;7.10;91.30;;;;;;5030525;28;20484;-65
2022/12/30 02:32:24;;;;;;;9.60;2.70;;;7.00;91.30;;;;;;5031081;28;20041;-65
2022/12/30 02:35:04;;;;;;;7.43;2.53;;;7.00;91.40;;;;;;5029218;28;20030;-65
2022/12/30 02:37:39;;;;;;;6.72;2.20;;;7.00;91.40;;;;;;5016756;28;20384;-65
2022/12/30 02:40:13;;;;;;;8.05;2.50;;;7.00;91.40;;;;;;5030648;28;20013;-65
2022/12/30 02:46:03;;;;;;;8.90;2.58;;;7.00;91.50;;;;;;5030348;28;20036;-65
2022/12/30 02:48:32;;;;;;;11.35;3.47;;;7.00;91.50;;;;;;5030543;28;20130;-65
2022/12/30 02:53:44;;;;;;;13.02;3.00;;;6.90;91.50;;;;;;5030836;28;20076;-65
2022/12/30 02:56:10;;;;;;;10.70;2.63;;;6.90;91.60;;;;;;5028402;28;20053;-65
2022/12/30 02:58:38;;;;;;;10.02;2.95;;;6.90;91.60;;;;;;5029661;28;20400;-66
2022/12/30 03:04:30;;;;;;;12.07;3.60;;;6.90;91.60;;;;;;5014994;28;20152;-66
2022/12/30 03:07:14;;;;;;;9.23;3.03;;;6.80;91.60;;;;;;5023343;28;20033;-66
2022/12/30 03:11:12;;;;;;;8.32;2.72;;;6.80;91.70;;;;;;5029034;28;20488;-65
2022/12/30 03:12:39;;;;;;;8.23;2.92;;;6.80;91.70;;;;;;5024776;28;20030;-65
2022/12/30 03:15:10;;;;;;;10.60;2.80;;;6.80;91.80;;;;;;5029859;28;20029;-66
2022/12/30 03:17:39;;;;;;;12.50;3.03;;;6.80;91.90;;;;;;5029753;28;20112;-65
2022/12/30 03:20:15;;;;;;;9.32;2.83;;;6.80;91.90;;;;;;5028528;28;20037;-65
2022/12/30 03:28:17;;;;;;;14.10;3.28;;;6.90;92.00;;;;;;5030443;28;20558;-65
2022/12/30 03:30:58;;;;;;;15.38;3.88;;;6.90;92.00;;;;;;5028014;28;20036;-65
2022/12/30 03:33:27;;;;;;;11.30;3.13;;;6.80;92.00;;;;;;5026195;28;20033;-65
2022/12/30 03:35:56;;;;;;;12.05;2.70;;;6.90;92.00;;;;;;5028825;28;20643;-66
2022/12/30 03:38:28;;;;;;;10.13;2.42;;;6.90;92.00;;;;;;5019036;28;20028;-66
2022/12/30 03:40:57;;;;;;;11.75;2.90;;;6.90;92.00;;;;;;5029632;28;20026;-66
2022/12/30 03:43:23;;;;;;;11.13;3.15;;;6.90;92.00;;;;;;5029287;28;20026;-65
2022/12/30 03:45:50;;;;;;;10.13;2.95;;;6.90;92.00;;;;;;5031826;28;20032;-67
2022/12/30 03:48:16;;;;;;;13.50;2.92;;;6.90;92.00;;;;;;5029440;28;20021;-66
2022/12/30 03:50:42;;;;;;;9.20;2.50;;;6.90;92.00;;;;;;5031491;28;20048;-65
2022/12/30 03:53:07;;;;;;;14.38;2.70;;;6.90;91.90;;;;;;5033373;28;20029;-66
2022/12/30 03:55:33;;;;;;;14.30;2.92;;;6.90;91.90;;;;;;5031578;28;20029;-66
2022/12/30 03:57:58;;;;;;;11.15;2.97;;;6.90;91.90;;;;;;5024738;28;20028;-66
2022/12/30 04:00:24;;;;;;;14.88;2.92;;;6.90;91.90;;;;;;5032531;28;20105;-66
2022/12/30 04:02:49;;;;;;;11.93;2.88;;;6.80;91.90;;;;;;5033279;28;20688;-67
2022/12/30 04:05:15;;;;;;;13.55;3.22;;;6.90;91.90;;;;;;5033236;28;20467;-66
2022/12/30 04:07:40;;;;;;;15.68;3.63;;;6.80;91.90;;;;;;5022631;28;20472;-66
2022/12/30 04:10:06;;;;;;;11.57;3.05;;;6.80;91.90;;;;;;5026072;28;20025;-66
2022/12/30 04:12:32;;;;;;;15.32;3.10;;;6.80;91.90;;;;;;5030544;28;20034;-67
2022/12/30 04:14:57;;;;;;;11.55;2.97;;;6.80;92.00;;;;;;5033457;28;20027;-66
2022/12/30 04:17:23;;;;;;;10.60;2.90;;;6.80;92.00;;;;;;5031450;28;20474;-66
2022/12/30 04:19:49;;;;;;;12.80;2.50;;;6.80;92.00;;;;;;5033537;28;20434;-66
2022/12/30 04:22:14;;;;;;;7.50;2.35;;;6.80;92.00;;;;;;5033081;28;20056;-66
2022/12/30 04:24:40;;;;;;;9.43;2.58;;;6.80;92.00;;;;;;5013517;28;20049;-66
2022/12/30 04:27:05;;;;;;;8.50;2.78;;;6.80;91.90;;;;;;5028342;28;20029;-67
2022/12/30 04:29:31;;;;;;;10.05;2.60;;;6.80;91.90;;;;;;5033105;28;20037;-66
2022/12/30 04:31:57;;;;;;;13.73;2.97;;;6.80;91.90;;;;;;5031619;28;20033;-66
2022/12/30 04:34:22;;;;;;;9.52;2.90;;;6.80;91.90;;;;;;5033098;28;20416;-65
2022/12/30 04:36:48;;;;;;;15.50;3.50;;;6.80;91.90;;;;;;5032729;28;20041;-65
2022/12/30 04:39:13;;;;;;;9.88;2.50;;;6.70;91.90;;;;;;5028689;28;20048;-66
2022/12/30 04:41:39;;;;;;;10.93;2.83;;;6.70;91.90;;;;;;5032669;28;20044;-66
2022/12/30 04:44:06;;;;;;;12.40;3.30;;;6.70;91.90;;;;;;5032936;28;20026;-66
2022/12/30 04:46:32;;;;;;;8.05;2.58;;;6.70;91.90;;;;;;5020422;28;20026;-66
2022/12/30 04:48:58;;;;;;;17.42;3.50;;;6.60;91.90;;;;;;5032770;28;20029;-65
2022/12/30 04:51:23;;;;;;;13.65;3.10;;;6.60;91.90;;;;;;5028273;28;20416;-65
2022/12/30 04:53:49;;;;;;;13.05;3.35;;;6.50;91.90;;;;;;5033065;28;20033;-65
2022/12/30 04:56:15;;;;;;;10.13;2.92;;;6.60;91.90;;;;;;5027459;28;20033;-66
2022/12/30 04:58:40;;;;;;;13.10;3.00;;;6.50;91.90;;;;;;5028815;28;20600;-65
2022/12/30 05:01:06;;;;;;;7.45;2.40;;;6.50;91.90;;;;;;5025613;28;20025;-66
2022/12/30 05:03:31;;;;;;;11.30;2.80;;;6.50;92.00;;;;;;5032377;28;20029;-65
2022/12/30 05:05:57;;;;;;;12.20;3.03;;;6.50;92.10;;;;;;5031489;28;20031;-65
2022/12/30 05:08:23;;;;;;;12.93;3.10;;;6.40;92.00;;;;;;5032285;28;20109;-66
2022/12/30 05:10:49;;;;;;;10.82;2.95;;;6.40;92.10;;;;;;5032285;28;20481;-66
2022/12/30 05:13:15;;;;;;;14.55;3.33;;;6.40;92.10;;;;;;5031854;28;20451;-67
2022/12/30 05:15:40;;;;;;;9.68;2.85;;;6.40;92.20;;;;;;5022732;28;20041;-66
2022/12/30 05:18:07;;;;;;;15.05;3.05;;;6.40;92.20;;;;;;5031998;28;20117;-66
2022/12/30 05:20:32;;;;;;;7.80;2.70;;;6.40;92.20;;;;;;5032061;28;20022;-65
2022/12/30 05:22:58;;;;;;;10.40;3.03;;;6.40;92.30;;;;;;5025324;28;20037;-66
2022/12/30 05:28:07;;;;;;;9.30;2.65;;;6.40;92.30;;;;;;5026860;28;20419;-65
2022/12/30 05:30:33;;;;;;;11.98;2.75;;;6.50;92.30;;;;;;5026919;28;20018;-65
2022/12/30 05:32:59;;;;;;;10.60;2.97;;;6.40;92.30;;;;;;5031949;28;20456;-65
2022/12/30 05:35:24;;;;;;;12.38;3.13;;;6.40;92.30;;;;;;5032362;28;20040;-66
2022/12/30 05:37:50;;;;;;;8.80;2.67;;;6.40;92.30;;;;;;5026735;28;20112;-65
2022/12/30 05:40:15;;;;;;;13.98;3.72;;;6.40;92.30;;;;;;5032031;28;20439;-67
2022/12/30 05:42:41;;;;;;;12.43;3.20;;;6.40;92.30;;;;;;5021522;28;20049;-66
2022/12/30 05:45:07;;;;;;;10.70;2.90;;;6.40;92.40;;;;;;5031972;28;20029;-66
2022/12/30 05:47:32;;;;;;;12.07;2.90;;;6.40;92.40;;;;;;5031741;28;20033;-66
2022/12/30 05:49:58;;;;;;;12.90;2.80;;;6.40;92.40;;;;;;5031618;28;20656;-66
2022/12/30 05:52:24;;;;;;;9.40;2.83;;;6.40;92.50;;;;;;5031374;28;20029;-65
2022/12/30 05:54:49;;;;;;;9.95;3.13;;;6.40;92.60;;;;;;5031677;28;20484;-66
2022/12/30 05:57:15;;;;;;;13.00;2.90;;;6.40;92.60;;;;;;5031118;28;20104;-66
2022/12/30 05:59:41;;;;;;;12.50;3.10;;;6.30;92.60;;;;;;5031439;28;20017;-66
2022/12/30 06:02:06;;;;;;;20.63;3.78;;;6.30;92.60;;;;;;5026214;28;20067;-67
2022/12/30 06:04:32;;;;;;;10.85;3.00;;;6.30;92.60;;;;;;5026002;28;20448;-66
2022/12/30 06:06:57;;;;;;;10.43;3.00;;;6.30;92.70;;;;;;5031507;28;20638;-66
2022/12/30 06:09:23;;;;;;;10.02;2.90;;;6.40;92.80;;;;;;5030678;28;20029;-65
2022/12/30 06:11:49;;;;;;;11.52;3.40;;;6.40;92.80;;;;;;5031522;28;20032;-65
2022/12/30 06:14:15;;;;;;;12.40;2.83;;;6.40;92.80;;;;;;5024323;28;20022;-65
2022/12/30 06:16:41;;;;;;;9.25;2.63;;;6.40;92.90;;;;;;5029781;28;20033;-65
2022/12/30 06:19:07;;;;;;;10.80;3.20;;;6.40;92.90;;;;;;5029622;28;20037;-65
2022/12/30 06:21:33;;;;;;;10.65;3.03;;;6.40;92.90;;;;;;5030535;28;20029;-66
2022/12/30 06:23:59;;;;;;;7.85;2.70;;;6.40;92.90;;;;;;5030442;28;20029;-66
2022/12/30 06:26:25;;;;;;;10.35;3.15;;;6.40;93.00;;;;;;5030534;28;20490;-65
2022/12/30 06:28:51;;;;;;;8.68;2.63;;;6.40;93.00;;;;;;5027536;28;20057;-65
2022/12/30 06:31:17;;;;;;;7.40;2.42;;;6.40;93.00;;;;;;5028976;28;20503;-67
2022/12/30 06:33:43;;;;;;;14.90;3.25;;;6.50;93.00;;;;;;5024623;28;20112;-67
2022/12/30 06:36:09;;;;;;;12.35;3.15;;;6.40;93.00;;;;;;5026387;28;20124;-67
2022/12/30 06:38:35;;;;;;;13.20;3.20;;;6.40;93.00;;;;;;5025253;28;20383;-67
2022/12/30 06:41:00;;;;;;;14.60;3.63;;;6.40;93.10;;;;;;5030028;28;20108;-66
2022/12/30 06:43:26;;;;;;;9.00;3.22;;;6.40;93.10;;;;;;5026608;28;20026;-66
2022/12/30 06:45:51;;;;;;;11.73;3.22;;;6.40;93.10;;;;;;5030540;28;20101;-67
2022/12/30 06:48:17;;;;;;;9.23;2.70;;;6.40;93.10;;;;;;5029765;28;20017;-67
2022/12/30 06:50:42;;;;;;;11.68;2.67;;;6.50;93.20;;;;;;5028283;28;20084;-66
2022/12/30 06:53:08;;;;;;;11.38;2.97;;;6.50;93.20;;;;;;5017415;28;20033;-67
2022/12/30 06:55:34;;;;;;;10.27;3.10;;;6.40;93.10;;;;;;5030388;28;20030;-66
2022/12/30 06:58:00;;;;;;;12.43;3.80;;;6.40;93.20;;;;;;5029339;28;20030;-66
2022/12/30 07:00:26;;;;;;;13.23;3.35;;;6.40;93.20;;;;;;5029275;28;20029;-66
2022/12/30 07:02:51;;;;;;;11.45;3.35;;;6.40;93.20;;;;;;5025983;28;20456;-67
2022/12/30 07:05:17;;;;;;;13.02;3.58;;;6.40;93.20;;;;;;5030216;28;20057;-67
2022/12/30 07:07:42;;;;;;;10.45;3.40;;;6.40;93.20;;;;;;5021556;28;20033;-66
2022/12/30 07:10:08;;;;;;;11.68;3.38;;;6.40;93.20;;;;;;5027870;28;20033;-67
2022/12/30 07:12:33;;;;;;;10.02;3.10;;;6.40;93.20;;;;;;5018464;28;20029;-67
2022/12/30 07:14:59;;;;;;;11.70;3.33;;;6.40;93.20;;;;;;5027054;28;20080;-66
2022/12/30 07:17:24;;;;;;;10.93;3.20;;;6.40;93.20;;;;;;5014357;28;20599;-66
2022/12/30 07:19:50;;;;;;;14.52;3.67;;;6.50;93.30;;;;;;5023411;28;20466;-66
2022/12/30 07:22:16;;;;;;;10.32;2.88;;;6.50;93.20;;;;;;5028375;28;20033;-67
2022/12/30 07:24:42;;;;;;;12.68;3.05;;;6.50;93.20;;;;;;5029903;28;20017;-66
2022/12/30 07:27:10;;;;;;;11.82;3.60;;;6.50;93.30;;;;;;5030092;28;20017;-66
2022/12/30 07:29:36;;;;;;;12.95;3.50;;;6.50;93.30;;;;;;5024716;28;20392;-65
2022/12/30 07:32:01;;;;;;;11.93;3.33;;;6.50;93.40;;;;;;5029781;28;20021;-66
2022/12/30 07:34:27;;;;;;;14.85;3.45;;;6.50;93.50;;;;;;5029613;28;20393;-66
2022/12/30 07:36:52;;;;;;;12.60;3.63;;;6.50;93.50;;;;;;5028911;28;20079;-67
2022/12/30 07:39:18;;;;;;;11.57;3.50;;;6.50;93.50;;;;;;5024081;28;20029;-66
2022/12/30 07:41:43;;;;;;;12.23;3.60;;;6.60;93.50;;;;;;5023772;28;20113;-67
2022/12/30 07:44:09;;;;;;;13.50;3.42;;;6.60;93.50;;;;;;5025602;28;20029;-66
2022/12/30 07:46:36;;;;;;;9.07;3.10;;;6.60;93.50;;;;;;5027456;28;20038;-66
2022/12/30 07:49:02;;;;;;;8.60;2.95;;;6.60;93.60;;;;;;5025780;28;20028;-66
2022/12/30 07:51:28;;;;;;;16.02;3.80;;;6.70;93.60;;;;;;5027594;28;20104;-66
2022/12/30 07:53:53;;;;;;;9.75;3.03;;;6.70;93.60;;;;;;5022284;28;20033;-66
2022/12/30 07:56:19;;;;;;;14.75;3.97;;;6.70;93.60;;;;;;5029541;28;20484;-67
2022/12/30 07:58:45;;;;;;;11.07;3.08;;;6.70;93.70;;;;;;5028864;28;20068;-66
2022/12/30 08:01:12;;;;;;;10.93;3.03;;;6.70;93.70;;;;;;5028443;28;20090;-66
2022/12/30 08:03:40;;;;;;;10.60;3.17;;;6.80;93.70;;;;;;5027927;28;20036;-67
2022/12/30 08:06:08;;;;;;;8.77;2.92;;;6.80;93.60;;;;;;5023585;28;20155;-65
2022/12/30 08:08:34;;;;;;;13.00;3.78;;;6.90;93.60;;;;;;5022256;28;20068;-66
2022/12/30 08:11:01;;;;;;;10.75;2.88;;;6.80;93.50;;;;;;5028657;28;20108;-66
2022/12/30 08:13:27;;;;;;;11.20;3.00;;;6.90;93.60;;;;;;5019178;28;20029;-66
2022/12/30 08:15:52;;;;;;;9.38;3.15;;;6.90;93.50;;;;;;5020611;28;20039;-66
2022/12/30 08:18:18;;;;;;;9.93;3.00;;;6.90;93.50;;;;;;5028613;28;20176;-66
2022/12/30 08:20:43;;;;;;;9.48;3.35;;;7.00;93.40;;;;;;5028167;28;20052;-66
2022/12/30 08:23:09;;;;;;;7.70;2.70;;;7.00;93.40;;;;;;5040245;28;20032;-66
2022/12/30 08:25:35;;;;;;;8.98;3.05;;;7.00;93.30;;;;;;5028886;28;20021;-67
2022/12/30 08:28:00;;;;;;;13.30;3.70;;;7.00;93.30;;;;;;5029110;28;20483;-67
2022/12/30 08:30:27;;;;;;;8.75;2.65;;;7.10;93.20;;;;;;5028466;28;20021;-67
2022/12/30 08:32:52;;;;;;;11.63;2.80;;;7.10;93.20;;;;;;5032554;28;20036;-67
2022/12/30 08:35:18;;;;;;;9.82;2.88;;;7.10;93.20;;;;;;5032587;28;20029;-67
2022/12/30 08:37:44;;;;;;;11.07;3.05;;;7.10;93.10;;;;;;5032646;28;20048;-66
2022/12/30 08:40:10;;;;;;;11.07;3.20;;;7.20;93.10;;;;;;5032510;28;20061;-66
2022/12/30 08:42:36;;;;;;;8.63;2.97;;;7.20;93.00;;;;;;5029495;28;20018;-67
2022/12/30 08:45:05;;;;;;;8.88;3.30;;;7.20;93.00;;;;;;5031823;28;20111;-66
2022/12/30 08:47:30;;;;;;;11.90;3.38;;;7.30;92.90;;;;;;5031804;28;20534;-67
2022/12/30 08:49:56;;;;;;;9.00;2.80;;;7.30;92.90;;;;;;5030820;28;20108;-69
2022/12/30 08:52:21;;;;;;;8.88;2.90;;;7.20;92.80;;;;;;5032144;28;20401;-66
2022/12/30 08:54:47;;;;;;;8.95;2.92;;;7.30;92.90;;;;;;5031642;28;20029;-66
2022/12/30 08:57:13;;;;;;;10.90;3.67;;;7.30;92.80;;;;;;5030347;28;20044;-66
2022/12/30 08:59:39;;;;;;;9.95;3.05;;;7.40;92.80;;;;;;5031537;28;20029;-65
2022/12/30 09:02:05;;;;;;;9.95;3.22;;;7.40;92.80;;;;;;5026794;28;20014;-66
2022/12/30 09:04:31;;;;;;;9.65;2.63;;;7.40;92.70;;;;;;5029084;28;20025;-68
2022/12/30 09:06:56;;;;;;;11.20;3.17;;;7.50;92.60;;;;;;5030618;28;20032;-67
2022/12/30 09:09:22;;;;;;;7.88;2.67;;;7.50;92.50;;;;;;5031042;28;20026;-67
2022/12/30 09:11:48;;;;;;;8.95;2.72;;;7.50;92.50;;;;;;5031772;28;20099;-67
2022/12/30 09:14:15;;;;;;;11.57;2.85;;;7.60;92.50;;;;;;5030695;28;20405;-66
2022/12/30 09:16:42;;;;;;;8.35;2.53;;;7.60;92.40;;;;;;5031552;28;20033;-67
2022/12/30 09:19:07;;;;;;;6.68;2.13;;;7.60;92.40;;;;;;5031381;28;20045;-67
2022/12/30 09:21:33;;;;;;;6.80;3.28;;;7.70;92.30;;;;;;5027373;28;20151;-67
2022/12/30 09:23:59;;;;;;;7.55;2.88;;;7.70;92.20;;;;;;5030693;28;20160;-67
2022/12/30 09:26:27;;;;;;;7.03;2.45;;;7.70;92.20;;;;;;5029446;28;20438;-66
2022/12/30 09:28:53;;;;;;;5.85;2.20;;;7.80;92.10;;;;;;5027783;28;20029;-67
2022/12/30 09:31:18;;;;;;;6.63;2.50;;;7.80;92.20;;;;;;5029790;28;20083;-68
2022/12/30 09:33:44;;;;;;;7.95;2.88;;;7.80;91.90;;;;;;5034033;28;20033;-67
2022/12/30 09:36:10;;;;;;;6.25;2.60;;;7.80;91.80;;;;;;5021029;28;20062;-67
2022/12/30 09:38:36;;;;;;;7.15;2.42;;;7.80;91.70;;;;;;5028443;28;20025;-68
2022/12/30 09:44:24;;;;;;;7.47;2.90;;;7.90;91.60;;;;;;5022131;28;20080;-68
2022/12/30 09:47:42;;;;;;;8.57;2.45;;;7.90;91.40;;;;;;5026608;28;20025;-67
2022/12/30 09:50:29;;;;;;;7.85;2.28;;;7.90;91.40;;;;;;5021991;28;20034;-68
2022/12/30 09:53:21;;;;;;;7.45;2.40;;;7.90;91.30;;;;;;5025773;28;20056;-68
2022/12/30 09:55:54;;;;;;;5.35;2.08;;;8.00;91.20;;;;;;5024960;28;20050;-68
2022/12/30 09:58:24;;;;;;;7.70;2.90;;;7.90;91.10;;;;;;5029151;28;21464;-67
2022/12/30 10:00:52;;;;;;;9.20;2.22;;;7.90;91.10;;;;;;5027394;28;20029;-67
2022/12/30 10:03:20;;;;;;;5.03;1.85;;;8.00;91.10;;;;;;5029252;28;20022;-67
2022/12/30 10:06:08;;;;;;;7.70;2.15;;;8.00;91.10;;;;;;5029601;28;20017;-68
2022/12/30 10:09:08;;;;;;;5.50;2.00;;;8.10;91.00;;;;;;5027477;28;20058;-67
2022/12/30 10:11:48;;;;;;;8.20;2.60;;;8.10;91.00;;;;;;5030327;28;20021;-67
2022/12/30 10:14:19;;;;;;;7.25;2.60;;;8.10;90.90;;;;;;5029757;28;20040;-67
2022/12/30 10:17:06;;;;;;;6.88;2.30;;;8.20;90.80;;;;;;5029097;28;20029;-67
2022/12/30 10:20:02;;;;;;;3.40;1.80;;;8.20;90.80;;;;;;5016831;28;20021;-67
2022/12/30 10:22:35;;;;;;;7.05;2.38;;;8.20;90.70;;;;;;5020709;28;20602;-67
2022/12/30 10:25:17;;;;;;;5.88;2.22;;;8.20;90.60;;;;;;5029457;28;20039;-67
2022/12/30 10:27:48;;;;;;;5.90;2.43;;;8.20;90.70;;;;;;5029554;28;20029;-67
2022/12/30 10:30:16;;;;;;;8.43;2.38;;;8.20;90.70;;;;;;5029131;28;20087;-67
2022/12/30 10:33:02;;;;;;;5.93;2.28;;;8.20;90.60;;;;;;5029429;28;20563;-67
2022/12/30 10:35:31;;;;;;;7.70;2.35;;;8.30;90.70;;;;;;5026319;28;20029;-67
2022/12/30 10:38:15;;;;;;;5.50;2.20;;;8.30;90.60;;;;;;5028594;28;20091;-68
2022/12/30 10:41:09;;;;;;;7.15;2.50;;;8.30;90.50;;;;;;5028709;28;20949;-68
2022/12/30 10:44:05;;;;;;;6.47;2.42;;;8.30;90.40;;;;;;5028165;28;20104;-68
2022/12/30 10:46:49;;;;;;;7.05;2.30;;;8.30;90.30;;;;;;5028508;28;20109;-67
2022/12/30 10:49:26;;;;;;;8.55;2.45;;;8.30;90.30;;;;;;5028307;28;20069;-68
2022/12/30 10:51:56;;;;;;;4.95;2.40;;;8.30;90.20;;;;;;5026434;28;20029;-70
2022/12/30 10:54:21;;;;;;;7.68;2.60;;;8.30;90.10;;;;;;5028283;28;20087;-67
2022/12/30 10:56:49;;;;;;;5.90;2.17;;;8.30;90.20;;;;;;5026652;28;20018;-68
2022/12/30 10:59:25;;;;;;;4.68;1.83;;;8.40;90.10;;;;;;5028668;28;20021;-67
2022/12/30 11:01:58;;;;;;;5.55;1.98;;;8.40;90.10;;;;;;5025607;28;20026;-67
2022/12/30 11:04:41;;;;;;;7.55;2.30;;;8.40;90.00;;;;;;5027333;28;20018;-67
2022/12/30 11:07:16;;;;;;;6.78;2.42;;;8.50;90.10;;;;;;5025370;28;20030;-67
2022/12/30 11:09:44;;;;;;;5.40;2.10;;;8.40;90.00;;;;;;5029155;28;20044;-66
2022/12/30 11:15:26;;;;;;;5.32;2.40;;;8.50;89.90;;;;;;5027721;28;20032;-67
2022/12/30 11:17:59;;;;;;;6.05;2.00;;;8.50;89.70;;;;;;5027024;28;20541;-67
2022/12/30 11:20:28;;;;;;;5.00;2.00;;;8.50;89.90;;;;;;5026698;28;20026;-67
2022/12/30 11:22:56;;;;;;;5.15;2.00;;;8.50;89.90;;;;;;5028616;28;20477;-67
2022/12/30 11:25:33;;;;;;;5.18;2.08;;;8.60;89.90;;;;;;5028569;28;20040;-67
2022/12/30 11:28:06;;;;;;;5.53;2.00;;;8.60;89.70;;;;;;5022313;28;20029;-67
2022/12/30 11:30:43;;;;;;;5.18;1.77;;;8.60;89.50;;;;;;5026854;28;20484;-67
2022/12/30 11:33:19;;;;;;;6.10;2.10;;;8.60;89.40;;;;;;5036381;28;20038;-66
2022/12/30 11:35:47;;;;;;;6.25;1.80;;;8.60;89.30;;;;;;5026845;28;20022;-67
2022/12/30 11:38:27;;;;;;;6.03;2.05;;;8.60;89.30;;;;;;5024896;28;20514;-66
2022/12/30 11:40:53;;;;;;;5.20;2.13;;;8.70;89.40;;;;;;5027580;28;20022;-67
2022/12/30 11:43:20;;;;;;;3.67;1.92;;;8.70;89.40;;;;;;5026073;28;20028;-65
2022/12/30 11:45:55;;;;;;;5.75;2.05;;;8.70;89.30;;;;;;5022790;28;20857;-67
2022/12/30 11:48:31;;;;;;;5.45;1.90;;;8.70;89.30;;;;;;5018981;28;20044;-67
2022/12/30 11:50:58;;;;;;;5.35;2.10;;;8.70;89.20;;;;;;5025371;28;20030;-67
2022/12/30 11:53:28;;;;;;;4.57;1.77;;;8.70;89.10;;;;;;5023834;28;20025;-67
2022/12/30 11:55:54;;;;;;;3.75;1.60;;;8.70;89.00;;;;;;5023069;28;20083;-67
2022/12/30 11:58:21;;;;;;;4.88;1.88;;;8.80;89.10;;;;;;5023613;28;20079;-67
2022/12/30 12:00:57;;;;;;;6.93;1.95;;;8.80;89.00;;;;;;5023639;28;20040;-66
2022/12/30 12:03:23;;;;;;;6.10;2.15;;;8.80;88.90;;;;;;5024583;28;20028;-67
2022/12/30 12:06:03;;;;;;;4.25;1.77;;;8.80;88.70;;;;;;5026174;28;20026;-66
2022/12/30 12:08:52;;;;;;;5.60;1.88;;;8.80;88.70;;;;;;5028154;28;20039;-66
2022/12/30 12:11:23;;;;;;;4.80;1.80;;;8.80;88.50;;;;;;5027001;28;20052;-66
2022/12/30 12:14:07;;;;;;;3.97;1.90;;;8.90;88.60;;;;;;5028050;28;20091;-66
2022/12/30 12:16:44;;;;;;;6.97;1.88;;;8.90;88.60;;;;;;5028571;28;20061;-67
2022/12/30 12:19:48;;;;;;;5.82;1.85;;;8.90;88.30;;;;;;5028591;28;20033;-66
2022/12/30 12:22:25;;;;;;;4.38;1.77;;;9.00;88.50;;;;;;5028344;28;20046;-66
2022/12/30 12:24:58;;;;;;;5.47;2.00;;;9.00;88.30;;;;;;5029692;28;20037;-66
2022/12/30 12:27:26;;;;;;;4.90;2.22;;;9.00;88.10;;;;;;5027096;28;20025;-66
2022/12/30 12:29:54;;;;;;;6.28;1.90;;;9.00;88.00;;;;;;5026485;28;20503;-67
2022/12/30 12:32:28;;;;;;;4.82;1.70;;;9.00;87.90;;;;;;5029792;28;20022;-67
2022/12/30 12:35:15;;;;;;;7.13;1.95;;;9.10;87.90;;;;;;5028534;28;20033;-67
2022/12/30 12:38:12;;;;;;;7.05;1.80;;;9.10;87.70;;;;;;5027509;28;20048;-67
2022/12/30 12:41:02;;;;;;;7.55;2.20;;;9.10;87.60;;;;;;5028754;28;20101;-67
2022/12/30 12:43:49;;;;;;;5.43;1.80;;;9.10;87.50;;;;;;5028925;28;20097;-66
2022/12/30 12:46:33;;;;;;;5.57;1.77;;;9.20;87.60;;;;;;5026861;28;20047;-66
2022/12/30 12:49:30;;;;;;;6.18;1.80;;;9.20;87.40;;;;;;5029339;28;20030;-66
2022/12/30 12:52:05;;;;;;;6.47;2.22;;;9.30;87.30;;;;;;5029856;28;20120;-66
2022/12/30 12:54:39;;;;;;;6.70;1.80;;;9.30;87.10;;;;;;5027873;28;20041;-67
2022/12/30 12:57:11;;;;;;;6.00;1.80;;;9.20;87.30;;;;;;5027731;28;20032;-66
2022/12/30 13:00:07;;;;;;;6.10;1.88;;;9.30;87.70;;;;;;5028624;28;20021;-66
2022/12/30 13:02:45;;;;;;;7.95;2.30;;;9.20;88.00;;;;;;5029696;28;20036;-67
2022/12/30 13:05:30;;;;;;;3.55;1.50;;;9.20;88.20;;;;;;5028629;28;20647;-67
2022/12/30 13:08:42;;;;;;;6.32;2.15;;;9.20;88.40;;;;;;5029130;28;20029;-66
2022/12/30 13:11:10;;;;;;;7.43;1.90;;;9.20;88.70;;;;;;5028853;28;20075;-66
2022/12/30 13:13:40;;;;;;;6.53;1.90;;;9.20;88.80;;;;;;5029482;28;20106;-66
2022/12/30 13:16:12;;;;;;;4.93;1.85;;;9.20;89.10;;;;;;5028951;28;20044;-66
2022/12/30 13:18:41;;;;;;;5.80;1.80;;;9.20;89.50;;;;;;5028920;28;20067;-66
2022/12/30 13:21:12;;;;;;;5.28;1.90;;;9.20;89.80;;;;;;5029248;28;20543;-67
2022/12/30 13:23:44;;;;;;;5.85;1.95;;;9.20;90.10;;;;;;5026785;28;20068;-67
2022/12/30 13:26:10;;;;;;;4.00;1.80;;;9.10;90.20;;;;;;5026774;28;20033;-67
2022/12/30 13:28:36;;;;;;;6.30;2.20;;;9.10;90.40;;;;;;5029022;28;20030;-67
2022/12/30 13:31:25;;;;;;;5.07;1.83;;;9.10;90.70;;;;;;5030382;28;20136;-67
2022/12/30 13:34:12;;;;;;;5.45;2.00;;;9.10;90.90;;;;;;5029101;28;20038;-67
2022/12/30 13:36:57;;;;;;;5.45;1.80;;;9.10;91.20;;;;;;5026180;28;20030;-67
2022/12/30 13:39:45;;;;;;;6.50;1.90;;;9.10;91.40;;;;;;5028059;28;20030;-67
2022/12/30 13:42:39;;;;;;;5.28;1.95;;;9.00;91.60;;;;;;5028133;28;20022;-67
2022/12/30 13:45:34;;;;;;;6.32;2.20;;;9.00;91.80;;;;;;5028243;28;20029;-67
2022/12/30 13:48:12;;;;;;;4.90;1.90;;;9.00;92.00;;;;;;5027368;28;20017;-67
2022/12/30 13:50:40;;;;;;;7.32;2.20;;;9.00;92.20;;;;;;5027893;28;20075;-67
2022/12/30 13:53:25;;;;;;;9.90;2.38;;;8.90;92.40;;;;;;5029224;28;20565;-67
2022/12/30 13:55:51;;;;;;;6.30;2.15;;;8.90;92.60;;;;;;5027896;28;20488;-67
2022/12/30 13:58:25;;;;;;;7.72;2.50;;;8.90;92.70;;;;;;5026045;28;20028;-67
2022/12/30 14:01:20;;;;;;;6.72;1.95;;;8.90;92.80;;;;;;5027781;28;20075;-67
2022/12/30 14:03:46;;;;;;;7.20;2.17;;;8.90;93.10;;;;;;5025330;28;20037;-67
2022/12/30 14:06:29;;;;;;;4.18;1.80;;;8.90;93.20;;;;;;5026109;28;20738;-67
2022/12/30 14:09:13;;;;;;;;;;;8.90;93.40;;;;;;5026681;28;20076;-67